Time,TemperatureF,DewpointF,PressureIn,WindDirection,WindDirectionDegrees,WindSpeedMPH,WindSpeedGustMPH,Humidity,HourlyPrecipIn,Conditions,Clouds,dailyrainin,SoftwareType,DateUTC
2013-07-22 00:01:00,66.0,63.0,30.07,SSE,158,1.0,6.0,90,0.00,,,1.52,,2013-07-22 04:01:00,
2013-07-22 00:12:00,66.0,63.0,30.07,SSE,158,0.0,5.0,90,0.00,,,1.52,,2013-07-22 04:12:00,
2013-07-22 00:22:00,66.0,63.0,30.07,SSE,158,0.0,5.0,90,0.00,,,1.52,,2013-07-22 04:22:00,
2013-07-22 00:33:00,66.0,63.0,30.07,SSE,158,1.0,7.0,89,0.00,,,1.52,,2013-07-22 04:33:00,
2013-07-22 00:43:00,66.0,63.0,30.07,SSE,159,2.0,5.0,90,0.00,,,1.52,,2013-07-22 04:43:00,
2013-07-22 01:02:00,66.0,63.0,30.06,SSE,159,2.0,4.0,89,0.00,,,1.52,,2013-07-22 05:02:00,
2013-07-22 01:11:00,66.0,63.0,30.05,SSE,159,2.0,4.0,89,0.00,,,1.52,,2013-07-22 05:11:00,
2013-07-22 01:22:00,66.0,63.0,30.05,SSE,159,2.0,4.0,89,0.00,,,1.52,,2013-07-22 05:22:00,
2013-07-22 01:32:00,67.0,64.0,30.05,SSE,153,1.0,9.0,89,0.00,,,1.52,,2013-07-22 05:32:00,
2013-07-22 01:43:00,66.0,63.0,30.04,SSE,159,2.0,8.0,90,0.00,,,1.52,,2013-07-22 05:43:00,
2013-07-22 01:52:00,66.0,63.0,30.04,SSE,159,2.0,8.0,90,0.00,,,1.52,,2013-07-22 05:52:00,
2013-07-22 02:01:00,66.0,63.0,30.03,South,174,3.0,6.0,89,0.00,,,1.52,,2013-07-22 06:01:00,
2013-07-22 02:22:00,66.0,63.0,30.02,South,169,3.0,8.0,89,0.00,,,1.52,,2013-07-22 06:22:00,
2013-07-22 02:33:00,66.0,63.0,30.02,SSE,166,2.0,5.0,90,0.00,,,1.52,,2013-07-22 06:33:00,
2013-07-22 02:43:00,66.0,63.0,30.01,SSE,165,2.0,9.0,90,0.00,,,1.52,,2013-07-22 06:43:00,
2013-07-22 02:52:00,66.0,63.0,30.01,SSE,165,2.0,9.0,90,0.00,,,1.52,,2013-07-22 06:52:00,
2013-07-22 03:01:00,66.0,63.0,30.01,SSE,162,2.0,7.0,90,0.00,,,1.52,,2013-07-22 07:01:00,
2013-07-22 03:12:00,66.0,63.0,30.00,South,172,1.0,9.0,90,0.00,,,1.52,,2013-07-22 07:12:00,
2013-07-22 03:22:00,66.0,63.0,30.00,South,172,1.0,9.0,90,0.00,,,1.52,,2013-07-22 07:22:00,
2013-07-22 03:33:00,66.0,63.0,29.99,South,173,2.0,6.0,89,0.00,,,1.52,,2013-07-22 07:33:00,
2013-07-22 03:43:00,66.0,63.0,29.98,SSE,167,2.0,11.0,89,0.00,,,1.52,,2013-07-22 07:43:00,
2013-07-22 03:53:00,66.0,63.0,29.98,SSE,167,2.0,11.0,89,0.00,,,1.52,,2013-07-22 07:53:00,
2013-07-22 04:02:00,66.0,62.0,29.98,SSE,167,2.0,7.0,88,0.00,,,1.52,,2013-07-22 08:02:00,
2013-07-22 04:11:00,66.0,62.0,29.98,SSE,155,3.0,12.0,87,0.00,,,1.52,,2013-07-22 08:11:00,
2013-07-22 04:22:00,66.0,62.0,29.98,SSE,155,3.0,12.0,87,0.00,,,1.52,,2013-07-22 08:22:00,
2013-07-22 04:32:00,67.0,63.0,29.98,South,172,2.0,8.0,87,0.00,,,1.52,,2013-07-22 08:32:00,
2013-07-22 04:43:00,67.0,63.0,29.98,SSE,167,2.0,10.0,86,0.00,,,1.52,,2013-07-22 08:43:00,
2013-07-22 04:52:00,67.0,63.0,29.98,SSE,167,2.0,10.0,86,0.00,,,1.52,,2013-07-22 08:52:00,
2013-07-22 05:02:00,66.0,62.0,29.98,South,172,1.0,5.0,87,0.00,,,1.52,,2013-07-22 09:02:00,
2013-07-22 05:11:00,66.0,62.0,29.98,South,177,2.0,7.0,86,0.00,,,1.52,,2013-07-22 09:11:00,
2013-07-22 05:22:00,66.0,62.0,29.98,South,177,2.0,7.0,86,0.00,,,1.52,,2013-07-22 09:22:00,
2013-07-22 05:33:00,66.0,62.0,29.98,South,175,1.0,5.0,86,0.00,,,1.52,,2013-07-22 09:33:00,
2013-07-22 05:42:00,66.0,61.0,29.99,South,178,1.0,4.0,85,0.00,,,1.52,,2013-07-22 09:42:00,
2013-07-22 05:52:00,66.0,61.0,29.99,South,178,1.0,4.0,85,0.00,,,1.52,,2013-07-22 09:52:00,
2013-07-22 06:02:00,66.0,62.0,29.99,SSE,167,1.0,4.0,87,0.00,,,1.52,,2013-07-22 10:02:00,
2013-07-22 06:11:00,65.0,61.0,30.00,South,173,2.0,7.0,88,0.00,,,1.52,,2013-07-22 10:11:00,
2013-07-22 06:22:00,65.0,61.0,30.00,South,173,2.0,7.0,88,0.00,,,1.52,,2013-07-22 10:22:00,
2013-07-22 06:32:00,65.0,61.0,30.00,South,173,0.0,3.0,88,0.00,,,1.52,,2013-07-22 10:32:00,
2013-07-22 06:43:00,65.0,62.0,30.01,South,173,0.0,3.0,89,0.00,,,1.52,,2013-07-22 10:43:00,
2013-07-22 06:53:00,65.0,62.0,30.01,South,173,0.0,3.0,89,0.00,,,1.52,,2013-07-22 10:53:00,
2013-07-22 07:02:00,64.0,61.0,30.01,South,173,1.0,6.0,91,0.00,,,1.52,,2013-07-22 11:02:00,
2013-07-22 07:11:00,66.0,62.0,30.01,South,173,0.0,3.0,88,0.00,,,1.52,,2013-07-22 11:11:00,
2013-07-22 07:23:00,66.0,62.0,30.01,South,173,0.0,3.0,88,0.00,,,1.52,,2013-07-22 11:23:00,
2013-07-22 07:52:00,68.0,63.0,30.02,South,173,0.0,2.0,84,0.00,,,1.52,,2013-07-22 11:52:00,
2013-07-22 10:32:00,74.0,66.0,30.04,South,173,0.0,3.0,75,0.00,,,1.52,,2013-07-22 14:32:00,
2013-07-22 10:53:00,73.0,65.0,30.04,South,173,1.0,5.0,77,0.00,,,1.52,,2013-07-22 14:53:00,
2013-07-22 11:02:00,73.0,65.0,30.04,South,173,1.0,5.0,77,0.00,,,1.52,,2013-07-22 15:02:00,
2013-07-22 11:11:00,75.0,67.0,30.04,South,173,0.0,4.0,77,0.00,,,1.52,,2013-07-22 15:11:00,
2013-07-22 11:22:00,75.0,66.0,30.05,South,173,0.0,3.0,73,0.00,,,1.52,,2013-07-22 15:22:00,
2013-07-22 11:43:00,76.0,66.0,30.05,South,173,1.0,6.0,71,0.00,,,1.52,,2013-07-22 15:43:00,
2013-07-22 11:52:00,77.0,66.0,30.04,South,173,1.0,4.0,68,0.00,,,1.52,,2013-07-22 15:52:00,
2013-07-22 12:01:00,77.0,66.0,30.04,South,173,1.0,4.0,68,0.00,,,1.52,,2013-07-22 16:01:00,
2013-07-22 12:32:00,78.0,66.0,30.04,South,174,0.0,4.0,66,0.00,,,1.52,,2013-07-22 16:32:00,
2013-07-22 12:43:00,79.0,68.0,30.03,South,173,0.0,4.0,69,0.00,,,1.52,,2013-07-22 16:43:00,
2013-07-22 12:52:00,79.0,67.0,30.03,South,173,0.0,3.0,66,0.00,,,1.52,,2013-07-22 16:52:00,
2013-07-22 13:11:00,77.0,66.0,30.03,South,173,1.0,3.0,69,0.00,,,1.52,,2013-07-22 17:11:00,
2013-07-22 13:32:00,76.0,67.0,30.03,South,173,0.0,3.0,74,0.00,,,1.52,,2013-07-22 17:32:00,
2013-07-22 13:43:00,78.0,65.0,30.03,South,173,0.0,4.0,65,0.00,,,1.52,,2013-07-22 17:43:00,
2013-07-22 13:52:00,77.0,66.0,30.02,South,175,0.0,2.0,69,0.00,,,1.52,,2013-07-22 17:52:00,
2013-07-22 14:05:00,77.0,66.0,30.02,South,175,0.0,2.0,69,0.00,,,1.52,,2013-07-22 18:05:00,
2013-07-22 14:15:00,79.0,68.0,30.01,South,178,0.0,4.0,70,0.00,,,1.52,,2013-07-22 18:15:00,
2013-07-22 14:51:00,80.0,69.0,30.00,South,177,1.0,4.0,69,0.00,,,1.52,,2013-07-22 18:51:00,
2013-07-22 14:59:00,81.0,72.0,29.99,South,177,0.0,2.0,75,0.00,,,1.52,,2013-07-22 18:59:00,
2013-07-22 15:05:00,81.0,72.0,29.99,South,177,0.0,2.0,75,0.00,,,1.52,,2013-07-22 19:05:00,
2013-07-22 15:16:00,77.0,68.0,29.99,South,177,0.0,4.0,75,0.00,,,1.52,,2013-07-22 19:16:00,
2013-07-22 15:45:00,76.0,69.0,29.98,South,177,0.0,4.0,79,0.00,,,1.52,,2013-07-22 19:45:00,
2013-07-22 15:55:00,79.0,72.0,29.97,South,177,0.0,3.0,79,0.00,,,1.52,,2013-07-22 19:55:00,
2013-07-22 16:04:00,79.0,72.0,29.97,South,177,0.0,3.0,79,0.00,,,1.52,,2013-07-22 20:04:00,
2013-07-22 16:16:00,79.0,70.0,29.97,South,177,0.0,5.0,74,0.00,,,1.52,,2013-07-22 20:16:00,
2013-07-22 16:22:00,79.0,70.0,29.96,South,177,0.0,2.0,73,0.00,,,0.02,,2013-07-22 20:22:00,
2013-07-22 16:43:00,78.0,70.0,29.96,South,177,0.0,3.0,76,0.00,,,0.02,,2013-07-22 20:43:00,
2013-07-22 16:52:00,77.0,70.0,29.96,South,177,0.0,3.0,79,0.00,,,0.02,,2013-07-22 20:52:00,
2013-07-22 17:12:00,77.0,70.0,29.96,South,178,0.0,2.0,80,0.00,,,0.02,,2013-07-22 21:12:00,
2013-07-22 17:32:00,76.0,69.0,29.95,South,178,0.0,3.0,79,0.00,,,0.02,,2013-07-22 21:32:00,
2013-07-22 17:43:00,76.0,70.0,29.96,South,177,2.0,4.0,81,0.00,,,0.02,,2013-07-22 21:43:00,
2013-07-22 17:53:00,74.0,69.0,29.95,South,177,2.0,8.0,84,0.00,,,0.02,,2013-07-22 21:53:00,
2013-07-22 18:01:00,73.0,68.0,29.95,South,173,2.0,5.0,85,0.00,,,0.02,,2013-07-22 22:01:00,
2013-07-22 18:11:00,73.0,68.0,29.95,South,173,2.0,5.0,85,0.00,,,0.02,,2013-07-22 22:11:00,
2013-07-22 18:32:00,74.0,67.0,29.94,South,173,0.0,4.0,80,0.00,,,0.02,,2013-07-22 22:32:00,
2013-07-22 18:43:00,75.0,68.0,29.94,South,173,0.0,5.0,78,0.00,,,0.02,,2013-07-22 22:43:00,
2013-07-22 18:52:00,75.0,67.0,29.94,South,173,0.0,2.0,77,0.00,,,0.02,,2013-07-22 22:52:00,
2013-07-22 19:01:00,73.0,68.0,29.94,South,173,1.0,4.0,83,0.00,,,0.02,,2013-07-22 23:01:00,
2013-07-22 19:11:00,73.0,68.0,29.94,South,173,1.0,4.0,83,0.00,,,0.02,,2013-07-22 23:11:00,
2013-07-22 19:22:00,72.0,68.0,29.93,South,173,0.0,4.0,86,0.00,,,0.02,,2013-07-22 23:22:00,
2013-07-22 19:32:00,71.0,68.0,29.93,South,181,1.0,4.0,89,0.00,,,0.02,,2013-07-22 23:32:00,
2013-07-22 19:43:00,71.0,68.0,29.93,South,181,1.0,4.0,89,0.00,,,0.02,,2013-07-22 23:43:00,
2013-07-22 19:52:00,70.0,67.0,29.93,South,181,1.0,3.0,89,0.00,,,0.02,,2013-07-22 23:52:00,
2013-07-22 20:01:00,70.0,67.0,29.93,SSE,162,1.0,9.0,91,0.04,,,0.06,,2013-07-23 00:01:00,
2013-07-22 20:12:00,70.0,67.0,29.93,SSE,162,1.0,9.0,91,0.04,,,0.06,,2013-07-23 00:12:00,
2013-07-22 20:22:00,69.0,67.0,29.93,SSE,162,0.0,3.0,93,0.04,,,0.04,,2013-07-23 00:22:00,
2013-07-22 20:32:00,69.0,67.0,29.94,SSE,162,2.0,6.0,93,0.04,,,0.04,,2013-07-23 00:32:00,
2013-07-22 20:43:00,69.0,67.0,29.94,SSE,162,2.0,6.0,93,0.04,,,0.04,,2013-07-23 00:43:00,
2013-07-22 20:52:00,69.0,67.0,29.93,SSE,165,1.0,4.0,92,0.04,,,0.04,,2013-07-23 00:52:00,
2013-07-22 21:01:00,69.0,67.0,29.93,SSE,165,1.0,6.0,93,0.00,,,0.04,,2013-07-23 01:01:00,
2013-07-22 21:11:00,69.0,67.0,29.93,SSE,165,1.0,6.0,93,0.00,,,0.04,,2013-07-23 01:11:00,
2013-07-22 21:22:00,69.0,67.0,29.93,SSE,165,2.0,7.0,92,0.01,,,0.05,,2013-07-23 01:22:00,
2013-07-22 21:32:00,69.0,67.0,29.93,SSE,165,2.0,7.0,92,0.01,,,0.05,,2013-07-23 01:32:00,
2013-07-22 21:43:00,68.0,66.0,29.93,South,169,2.0,11.0,93,0.01,,,0.05,,2013-07-23 01:43:00,
2013-07-22 21:53:00,68.0,66.0,29.93,SSE,158,2.0,8.0,94,0.01,,,0.05,,2013-07-23 01:53:00,
2013-07-22 22:02:00,68.0,66.0,29.93,SSE,158,2.0,8.0,94,0.01,,,0.05,,2013-07-23 02:02:00,
2013-07-22 22:11:00,68.0,66.0,29.94,SSE,162,1.0,7.0,94,0.02,,,0.06,,2013-07-23 02:11:00,
2013-07-22 22:22:00,68.0,66.0,29.96,South,174,2.0,7.0,94,0.16,,,0.21,,2013-07-23 02:22:00,
2013-07-22 22:43:00,66.0,63.0,29.95,South,169,4.0,9.0,91,0.19,,,0.24,,2013-07-23 02:43:00,
2013-07-22 22:53:00,65.0,63.0,29.96,SSE,150,3.0,8.0,92,0.19,,,0.24,,2013-07-23 02:53:00,
2013-07-22 23:11:00,65.0,62.0,29.95,South,170,2.0,12.0,90,0.18,,,0.24,,2013-07-23 03:11:00,
2013-07-22 23:33:00,65.0,62.0,29.95,South,173,2.0,12.0,91,0.02,,,0.24,,2013-07-23 03:33:00,
2013-07-22 23:43:00,65.0,62.0,29.95,South,181,2.0,10.0,91,0.00,,,0.24,,2013-07-23 03:43:00,
2013-07-22 23:52:00,65.0,62.0,29.95,SSE,167,2.0,12.0,90,0.00,,,0.24,,2013-07-23 03:52:00,